Time;durP1;ratioP1;P1;durP2;ratioP2;P2;SDS_P1;SDS_P2;PMS_P1;PMS_P2;Temp;Humidity;BMP_temperature;BMP_pressure;BME280_temperature;BME280_humidity;BME280_pressure;Samples;Min_cycle;Max_cycle;Signal;HPM_P1;HPM_P2
2022/12/21 00:01:12;;;;;;;2.97;0.75;;;7.90;99.90;;;;;;6219024;23;20047;-87
2022/12/21 00:03:37;;;;;;;0.38;0.38;;;7.90;99.90;;;;;;6192942;23;20502;-87
2022/12/21 00:06:04;;;;;;;2.33;0.83;;;7.90;99.90;;;;;;6218047;23;20019;-87
2022/12/21 00:08:30;;;;;;;2.78;0.70;;;7.90;99.90;;;;;;6156209;23;20016;-90
2022/12/21 00:10:59;;;;;;;0.90;0.70;;;7.90;99.90;;;;;;6188011;23;20405;-87
2022/12/21 00:13:25;;;;;;;0.95;0.60;;;7.80;99.90;;;;;;6163575;23;20020;-87
2022/12/21 00:16:10;;;;;;;0.80;0.40;;;7.70;99.90;;;;;;6187857;23;20016;-87
2022/12/21 00:18:37;;;;;;;1.80;1.25;;;7.70;99.90;;;;;;6162777;23;20252;-87
2022/12/21 00:21:11;;;;;;;4.47;0.55;;;7.70;99.90;;;;;;6163254;23;20025;-87
2022/12/21 00:23:37;;;;;;;1.00;0.40;;;7.70;99.90;;;;;;6187779;23;20059;-87
2022/12/21 00:26:05;;;;;;;0.87;0.30;;;7.70;99.90;;;;;;6188602;23;20024;-87
2022/12/21 00:28:31;;;;;;;0.85;0.85;;;7.70;99.90;;;;;;6162778;23;20252;-91
2022/12/21 00:31:08;;;;;;;1.83;0.95;;;7.70;99.90;;;;;;6187853;23;20052;-87
2022/12/21 00:33:35;;;;;;;1.23;0.30;;;7.70;99.90;;;;;;6187895;23;20091;-88
2022/12/21 00:36:01;;;;;;;0.50;0.50;;;7.70;99.90;;;;;;6214632;23;20086;-87
2022/12/21 00:38:27;;;;;;;0.75;0.47;;;7.70;99.90;;;;;;6163565;23;20020;-87
2022/12/21 00:40:58;;;;;;;0.57;0.43;;;7.70;99.90;;;;;;6187067;23;20074;-88
2022/12/21 00:43:25;;;;;;;3.83;0.85;;;7.70;99.90;;;;;;6214859;23;20013;-87
2022/12/21 00:45:50;;;;;;;1.23;0.85;;;7.60;99.90;;;;;;6187930;23;20013;-87
2022/12/21 00:48:16;;;;;;;3.30;1.43;;;7.60;99.90;;;;;;6163011;23;20386;-87
2022/12/21 00:50:42;;;;;;;1.60;0.43;;;7.60;99.90;;;;;;6187185;23;20028;-87
2022/12/21 00:53:08;;;;;;;0.87;0.87;;;7.60;99.90;;;;;;6214726;23;20048;-87
2022/12/21 00:55:34;;;;;;;1.55;0.90;;;7.60;99.90;;;;;;6188091;23;20024;-89
2022/12/21 00:58:01;;;;;;;1.58;0.40;;;7.60;99.90;;;;;;6187801;23;20016;-87
2022/12/21 01:00:27;;;;;;;3.38;0.60;;;7.60;99.90;;;;;;6187820;23;20021;-87
2022/12/21 01:02:53;;;;;;;1.23;1.13;;;7.50;99.90;;;;;;6162796;23;20020;-87
2022/12/21 01:05:19;;;;;;;3.28;1.00;;;7.50;99.90;;;;;;6163546;23;20012;-87
2022/12/21 01:07:44;;;;;;;0.97;0.67;;;7.50;99.90;;;;;;6163936;23;20449;-88
2022/12/21 01:10:11;;;;;;;0.90;0.63;;;7.50;99.90;;;;;;6218146;23;20459;-87
2022/12/21 01:12:36;;;;;;;2.05;0.82;;;7.50;99.90;;;;;;6245145;23;20506;-87
2022/12/21 01:15:03;;;;;;;1.23;0.63;;;7.50;99.90;;;;;;6192726;23;20016;-87
2022/12/21 01:17:29;;;;;;;;;;;7.50;99.90;;;;;;6218473;23;20065;-87
2022/12/21 01:19:54;;;;;;;1.05;0.35;;;7.50;99.90;;;;;;6217067;23;19916;-88
2022/12/21 01:22:20;;;;;;;1.20;1.03;;;7.50;99.90;;;;;;6169301;23;20448;-88
2022/12/21 01:24:47;;;;;;;1.70;0.37;;;7.50;99.90;;;;;;6194164;23;20079;-88
2022/12/21 01:27:12;;;;;;;;;;;7.50;99.90;;;;;;6220055;23;20318;-87
2022/12/21 01:29:38;;;;;;;1.77;0.30;;;7.40;99.90;;;;;;6219828;23;19963;-87
2022/12/21 01:32:05;;;;;;;2.37;0.60;;;7.50;99.90;;;;;;6218958;23;20012;-87
2022/12/21 01:34:31;;;;;;;0.28;0.28;;;7.40;99.90;;;;;;6194824;23;20016;-87
2022/12/21 01:36:56;;;;;;;0.60;0.50;;;7.40;99.90;;;;;;6219485;23;20115;-87
2022/12/21 01:39:22;;;;;;;0.43;0.30;;;7.40;99.90;;;;;;6195022;23;20066;-87
2022/12/21 01:41:48;;;;;;;0.60;0.60;;;7.40;99.90;;;;;;6168496;23;20016;-87
2022/12/21 01:44:54;;;;;;;1.13;0.23;;;7.40;99.90;;;;;;6195250;23;20433;-87
2022/12/21 01:47:24;;;;;;;2.35;0.80;;;7.30;99.90;;;;;;6195114;23;20404;-87
2022/12/21 01:50:02;;;;;;;1.45;0.35;;;7.30;99.90;;;;;;6219326;23;20008;-87
2022/12/21 01:52:30;;;;;;;0.65;0.25;;;7.30;99.90;;;;;;6219104;23;20016;-87
2022/12/21 01:55:04;;;;;;;2.40;0.60;;;7.20;99.90;;;;;;6194447;23;20016;-88
2022/12/21 01:57:32;;;;;;;0.38;0.35;;;7.30;99.90;;;;;;6195052;23;20070;-87
2022/12/21 02:00:00;;;;;;;0.28;0.28;;;7.30;99.90;;;;;;6219170;23;20012;-87
2022/12/21 02:02:34;;;;;;;3.17;1.00;;;7.20;99.90;;;;;;6219396;23;20230;-87
2022/12/21 02:05:34;;;;;;;0.68;0.68;;;7.20;99.90;;;;;;6217986;23;20012;-88
2022/12/21 02:08:03;;;;;;;2.80;0.13;;;7.20;99.90;;;;;;6218696;23;20042;-87
2022/12/21 02:10:29;;;;;;;1.58;0.77;;;7.20;99.90;;;;;;6220173;23;20334;-87
2022/12/21 02:13:00;;;;;;;0.98;0.45;;;7.10;99.90;;;;;;6193306;23;20012;-87
2022/12/21 02:15:48;;;;;;;0.65;0.65;;;7.10;99.90;;;;;;6219435;23;20019;-88
2022/12/21 02:18:33;;;;;;;2.55;0.38;;;7.10;99.90;;;;;;6194600;23;20020;-87
2022/12/21 02:21:20;;;;;;;0.70;0.50;;;7.10;99.90;;;;;;6193284;23;20020;-88
2022/12/21 02:23:58;;;;;;;1.38;0.60;;;7.00;99.90;;;;;;6194551;23;20028;-87
2022/12/21 02:26:42;;;;;;;;;;;7.00;99.90;;;;;;6220094;23;20020;-87
2022/12/21 02:29:50;;;;;;;0.60;0.20;;;7.00;99.90;;;;;;6193682;23;19915;-87
2022/12/21 02:32:37;;;;;;;0.85;0.20;;;6.90;99.90;;;;;;6202155;23;20165;-87
2022/12/21 02:35:21;;;;;;;0.40;0.40;;;6.90;99.90;;;;;;6218084;23;20016;-87
2022/12/21 02:37:59;;;;;;;1.98;0.75;;;6.90;99.90;;;;;;6219350;23;20023;-88
2022/12/21 02:40:29;;;;;;;0.40;0.22;;;6.90;99.90;;;;;;6219629;23;20020;-87
2022/12/21 02:46:01;;;;;;;1.10;1.10;;;6.80;99.90;;;;;;6218916;23;20020;-87
2022/12/21 02:48:36;;;;;;;0.30;0.15;;;6.70;99.90;;;;;;6194149;23;20360;-87
2022/12/21 02:51:08;;;;;;;0.00;0.00;;;6.80;99.90;;;;;;6218749;23;20035;-87
2022/12/21 02:53:36;;;;;;;1.58;0.50;;;6.80;99.90;;;;;;6218277;23;20067;-89
2022/12/21 02:56:02;;;;;;;0.90;0.40;;;6.80;99.90;;;;;;6193428;23;20023;-88
2022/12/21 02:58:28;;;;;;;1.55;0.30;;;6.70;99.90;;;;;;6194071;23;20023;-87
2022/12/21 03:01:05;;;;;;;0.73;0.70;;;6.70;99.90;;;;;;6194432;23;20016;-87
2022/12/21 03:03:49;;;;;;;;;;;6.70;99.90;;;;;;6218946;23;20020;-87
2022/12/21 03:06:21;;;;;;;0.95;0.35;;;6.70;99.90;;;;;;6218460;23;19915;-87
2022/12/21 03:08:56;;;;;;;2.15;0.65;;;6.60;99.90;;;;;;6194013;23;20016;-87
2022/12/21 03:11:52;;;;;;;0.43;0.28;;;6.60;99.90;;;;;;6219032;23;20012;-87
2022/12/21 03:14:49;;;;;;;0.90;0.73;;;6.60;99.90;;;;;;6138178;23;20016;-87
2022/12/21 03:17:27;;;;;;;0.95;0.30;;;6.60;99.90;;;;;;6193065;23;20016;-87
2022/12/21 03:20:18;;;;;;;0.22;0.20;;;6.50;99.90;;;;;;6245619;23;20039;-87
2022/12/21 03:23:10;;;;;;;0.10;0.10;;;6.50;99.90;;;;;;6193526;23;20035;-87
2022/12/21 03:26:11;;;;;;;0.03;0.03;;;6.60;99.90;;;;;;6216393;23;20043;-87
2022/12/21 03:28:39;;;;;;;0.17;0.10;;;6.50;99.90;;;;;;6212496;23;20020;-87
2022/12/21 03:31:11;;;;;;;0.52;0.40;;;6.50;99.90;;;;;;6244084;23;20333;-87
2022/12/21 03:33:41;;;;;;;0.75;0.35;;;6.50;99.90;;;;;;6218075;23;20095;-87
2022/12/21 03:36:16;;;;;;;0.20;0.20;;;6.50;99.90;;;;;;6218221;23;20009;-87
2022/12/21 03:38:54;;;;;;;0.25;0.13;;;6.50;99.90;;;;;;6245738;23;20012;-87
2022/12/21 03:41:32;;;;;;;0.10;0.10;;;6.50;99.90;;;;;;6193236;23;20322;-87
2022/12/21 03:44:03;;;;;;;0.50;0.30;;;6.50;99.90;;;;;;6218295;23;20020;-87
2022/12/21 03:46:55;;;;;;;0.20;0.20;;;6.50;99.90;;;;;;6218919;23;20345;-87
2022/12/21 03:49:51;;;;;;;0.52;0.20;;;6.50;99.90;;;;;;6192943;23;20020;-87
2022/12/21 03:52:22;;;;;;;1.05;0.30;;;6.40;99.90;;;;;;6186910;23;20020;-87
2022/12/21 03:54:55;;;;;;;0.32;0.32;;;6.40;99.90;;;;;;6218359;23;20146;-87
2022/12/21 03:57:21;;;;;;;1.90;0.38;;;6.40;99.90;;;;;;6218104;23;20345;-87
2022/12/21 03:59:52;;;;;;;0.45;0.20;;;6.40;99.90;;;;;;6218479;23;20016;-87
2022/12/21 04:02:49;;;;;;;2.45;0.63;;;6.50;99.90;;;;;;6244632;23;20023;-87
2022/12/21 04:05:35;;;;;;;0.00;0.00;;;6.40;99.90;;;;;;6216536;23;20018;-87
2022/12/21 04:08:01;;;;;;;0.10;0.08;;;6.40;99.90;;;;;;6218383;23;20027;-87
2022/12/21 04:10:27;;;;;;;0.60;0.20;;;6.50;99.90;;;;;;6218034;23;20027;-87
2022/12/21 04:12:53;;;;;;;0.20;0.10;;;6.40;99.90;;;;;;6218297;23;20012;-87
2022/12/21 04:15:23;;;;;;;0.10;0.10;;;6.60;99.90;;;;;;6217119;23;20458;-87
2022/12/21 04:17:50;;;;;;;0.25;0.25;;;6.50;99.90;;;;;;6193425;23;20023;-87
2022/12/21 04:20:19;;;;;;;2.00;0.38;;;6.50;99.90;;;;;;6217921;23;20023;-87
2022/12/21 04:28:30;;;;;;;0.75;0.32;;;6.50;99.90;;;;;;6218039;23;20377;-87
2022/12/21 04:30:58;;;;;;;0.10;0.10;;;6.40;99.90;;;;;;6218103;23;20016;-87
2022/12/21 04:33:25;;;;;;;2.55;0.65;;;6.50;99.90;;;;;;6192575;23;20017;-87
2022/12/21 04:38:39;;;;;;;0.15;0.15;;;6.40;99.90;;;;;;6218153;23;20016;-87
2022/12/21 04:41:05;;;;;;;1.08;0.77;;;6.40;99.90;;;;;;6193385;23;20020;-87
2022/12/21 04:43:34;;;;;;;0.43;0.43;;;6.40;99.90;;;;;;6192789;23;20579;-87
2022/12/21 04:46:04;;;;;;;0.17;0.17;;;6.40;99.90;;;;;;6217290;23;20070;-87
2022/12/21 04:48:30;;;;;;;0.32;0.32;;;6.40;99.90;;;;;;6244222;23;20471;-87
2022/12/21 04:51:01;;;;;;;0.00;0.00;;;6.40;99.90;;;;;;6168784;23;20203;-87
2022/12/21 04:53:27;;;;;;;0.20;0.10;;;6.40;99.90;;;;;;6193895;23;20082;-87
2022/12/21 04:55:53;;;;;;;0.10;0.10;;;6.40;99.90;;;;;;6168180;23;20444;-87
2022/12/21 04:58:18;;;;;;;0.30;0.10;;;6.40;99.90;;;;;;6219844;23;20243;-88
2022/12/21 05:00:44;;;;;;;0.87;0.20;;;6.30;99.90;;;;;;6170838;23;20401;-87
2022/12/21 05:03:10;;;;;;;0.43;0.40;;;6.30;99.90;;;;;;6195440;23;20016;-87
2022/12/21 05:05:35;;;;;;;0.37;0.37;;;6.30;99.90;;;;;;6169519;23;20016;-87
2022/12/21 05:08:01;;;;;;;0.00;0.00;;;6.30;99.90;;;;;;6195035;23;20012;-88
2022/12/21 05:10:27;;;;;;;0.80;0.40;;;6.30;99.90;;;;;;6219879;23;20476;-87
2022/12/21 05:12:52;;;;;;;0.40;0.40;;;6.40;99.90;;;;;;6219590;23;20012;-87
2022/12/21 05:15:19;;;;;;;0.13;0.13;;;6.30;99.90;;;;;;6194336;23;20078;-92
2022/12/21 05:17:44;;;;;;;1.05;0.35;;;6.30;99.90;;;;;;6220150;23;20384;-87
2022/12/21 05:20:10;;;;;;;0.33;0.17;;;6.30;99.90;;;;;;6220457;23;20016;-87
2022/12/21 05:22:36;;;;;;;0.05;0.05;;;5.90;99.90;;;;;;6194590;23;20353;-87
2022/12/21 05:25:02;;;;;;;0.10;0.10;;;6.40;99.90;;;;;;6219734;23;20031;-87
2022/12/21 05:27:28;;;;;;;3.05;0.28;;;6.30;99.90;;;;;;6194616;23;20030;-87
2022/12/21 05:29:53;;;;;;;2.47;0.50;;;6.30;99.90;;;;;;6194594;23;20091;-87
2022/12/21 05:32:19;;;;;;;1.80;0.27;;;6.30;99.90;;;;;;6219754;23;20052;-91
2022/12/21 05:34:45;;;;;;;0.57;0.57;;;6.20;99.90;;;;;;6219638;23;20020;-88
2022/12/21 05:37:11;;;;;;;1.83;0.20;;;6.20;99.90;;;;;;6246255;23;20016;-87
2022/12/21 05:39:36;;;;;;;1.00;0.40;;;6.20;99.90;;;;;;6194562;23;20142;-87
2022/12/21 05:42:02;;;;;;;1.77;0.73;;;6.30;99.90;;;;;;6169759;23;20055;-88
2022/12/21 05:44:28;;;;;;;2.60;0.52;;;6.20;99.90;;;;;;6219329;23;20020;-87
2022/12/21 05:46:54;;;;;;;0.57;0.10;;;6.20;99.90;;;;;;6194532;23;20035;-87
2022/12/21 05:49:20;;;;;;;0.97;0.57;;;6.20;99.90;;;;;;6219526;23;20020;-87
2022/12/21 05:51:47;;;;;;;0.47;0.47;;;6.20;99.90;;;;;;6246068;23;20020;-87
2022/12/21 05:54:13;;;;;;;;;;;6.20;99.90;;;;;;6220290;23;20310;-87
2022/12/21 05:56:38;;;;;;;0.82;0.32;;;6.30;99.90;;;;;;6193339;23;19922;-87
2022/12/21 05:59:04;;;;;;;1.03;0.53;;;6.20;99.90;;;;;;6246600;23;20051;-87
2022/12/21 06:01:30;;;;;;;1.83;0.30;;;6.20;99.90;;;;;;6218971;23;20453;-87
2022/12/21 06:03:55;;;;;;;0.20;0.20;;;6.30;99.90;;;;;;6219626;23;20445;-87
2022/12/21 06:06:21;;;;;;;1.43;0.97;;;6.20;99.90;;;;;;6194270;23;20447;-87
2022/12/21 06:08:47;;;;;;;0.97;0.33;;;6.20;99.90;;;;;;6218265;23;20031;-87
2022/12/21 06:11:18;;;;;;;1.30;0.67;;;6.20;99.90;;;;;;6219271;23;20031;-87
2022/12/21 06:13:44;;;;;;;0.63;0.50;;;6.20;99.90;;;;;;6193009;23;20066;-87
2022/12/21 06:16:15;;;;;;;5.90;1.10;;;6.20;99.90;;;;;;6169355;23;20368;-87
2022/12/21 06:18:42;;;;;;;0.80;0.47;;;6.20;99.90;;;;;;6217996;23;20020;-87
2022/12/21 06:21:09;;;;;;;0.38;0.38;;;6.20;99.90;;;;;;6219678;23;20012;-87
2022/12/21 06:23:35;;;;;;;1.10;0.30;;;6.20;99.90;;;;;;6219035;23;20016;-87
2022/12/21 06:26:03;;;;;;;1.00;0.35;;;6.30;99.90;;;;;;6219027;23;20023;-87
2022/12/21 06:28:30;;;;;;;2.63;0.90;;;6.30;99.90;;;;;;6194101;23;20082;-89
2022/12/21 06:31:05;;;;;;;0.65;0.57;;;6.20;99.90;;;;;;6219765;23;20016;-87
2022/12/21 06:33:31;;;;;;;0.40;0.30;;;6.20;99.90;;;;;;6245359;23;20429;-91
2022/12/21 06:35:57;;;;;;;0.45;0.30;;;6.20;99.90;;;;;;6168989;23;20024;-90
2022/12/21 06:38:24;;;;;;;1.23;0.85;;;6.20;99.90;;;;;;6219297;23;20070;-87
2022/12/21 06:41:08;;;;;;;0.30;0.30;;;6.30;99.90;;;;;;6218972;23;20642;-87
2022/12/21 06:43:35;;;;;;;1.67;0.40;;;6.30;99.90;;;;;;6193721;23;20013;-88
2022/12/21 06:46:07;;;;;;;1.33;0.73;;;6.30;99.90;;;;;;6219539;23;20023;-87
2022/12/21 06:48:34;;;;;;;0.47;0.43;;;6.30;99.90;;;;;;6217798;23;20017;-91
2022/12/21 06:51:06;;;;;;;0.73;0.30;;;6.30;99.90;;;;;;6219301;23;20340;-87
2022/12/21 06:53:35;;;;;;;0.65;0.30;;;6.30;99.90;;;;;;6219189;23;20093;-91
2022/12/21 06:56:04;;;;;;;0.47;0.40;;;6.30;99.90;;;;;;6219144;23;20511;-87
2022/12/21 06:58:30;;;;;;;0.50;0.20;;;6.40;99.90;;;;;;6218846;23;20022;-87
2022/12/21 07:01:02;;;;;;;1.65;0.43;;;6.40;99.90;;;;;;6193582;23;20063;-87
2022/12/21 07:03:28;;;;;;;0.63;0.63;;;6.40;99.90;;;;;;6194061;23;20059;-87
2022/12/21 07:05:53;;;;;;;0.40;0.40;;;6.40;99.90;;;;;;6217465;23;20013;-87
2022/12/21 07:08:19;;;;;;;1.20;0.50;;;6.40;99.90;;;;;;6193307;23;20356;-87
2022/12/21 07:10:45;;;;;;;0.20;0.20;;;6.40;99.90;;;;;;6195725;23;20028;-86
2022/12/21 07:13:11;;;;;;;0.80;0.80;;;6.40;99.90;;;;;;6168635;23;20070;-86
2022/12/21 07:15:36;;;;;;;3.77;0.70;;;6.50;99.90;;;;;;6169522;23;20026;-90
2022/12/21 07:18:02;;;;;;;1.10;0.43;;;7.50;99.90;;;;;;6193089;23;20333;-84
2022/12/21 07:20:28;;;;;;;0.40;0.40;;;6.50;99.90;;;;;;6218550;23;20024;-88
2022/12/21 07:22:54;;;;;;;0.63;0.30;;;6.50;99.90;;;;;;6193657;23;20023;-86
2022/12/21 07:25:20;;;;;;;3.13;0.77;;;6.50;99.90;;;;;;6218743;23;20013;-87
2022/12/21 07:27:45;;;;;;;1.07;0.70;;;6.50;99.90;;;;;;6193409;23;20094;-85
2022/12/21 07:30:11;;;;;;;0.53;0.53;;;6.60;99.90;;;;;;6219483;23;20016;-85
2022/12/21 07:32:37;;;;;;;0.17;0.17;;;6.50;99.90;;;;;;6193232;23;20023;-87
2022/12/21 07:35:04;;;;;;;0.23;0.10;;;6.60;99.90;;;;;;6193501;23;20022;-83
2022/12/21 07:37:29;;;;;;;1.17;0.73;;;6.60;99.90;;;;;;6193704;23;20055;-86
2022/12/21 07:39:55;;;;;;;0.33;0.33;;;6.60;99.90;;;;;;6194339;23;20016;-85
2022/12/21 07:42:21;;;;;;;1.17;0.73;;;6.60;99.90;;;;;;6170276;23;20012;-86
2022/12/21 07:44:46;;;;;;;0.63;0.63;;;6.60;99.90;;;;;;6194992;23;20043;-85
2022/12/21 07:47:12;;;;;;;1.83;0.30;;;6.60;99.90;;;;;;6194199;23;20100;-84
2022/12/21 07:49:38;;;;;;;2.63;1.10;;;6.70;99.90;;;;;;6218818;23;20071;-84
2022/12/21 07:52:04;;;;;;;0.77;0.53;;;6.60;99.90;;;;;;6193792;23;20016;-84
2022/12/21 07:54:29;;;;;;;1.20;0.67;;;6.60;99.90;;;;;;6193795;23;20016;-84
2022/12/21 07:56:55;;;;;;;1.07;0.60;;;6.60;99.90;;;;;;6193550;23;20058;-84
2022/12/21 07:59:20;;;;;;;1.23;0.63;;;6.60;99.90;;;;;;6144670;23;20020;-85
2022/12/21 08:01:46;;;;;;;1.73;0.57;;;6.60;99.90;;;;;;6193714;23;20024;-86
2022/12/21 08:04:12;;;;;;;0.60;0.30;;;6.60;99.90;;;;;;6193944;23;20094;-84
2022/12/21 08:06:37;;;;;;;0.50;0.50;;;6.60;99.90;;;;;;6218901;23;20012;-85
2022/12/21 08:09:03;;;;;;;1.03;0.43;;;6.60;99.90;;;;;;6192572;23;20093;-84
2022/12/21 08:11:29;;;;;;;2.37;0.60;;;6.60;99.90;;;;;;6217691;23;20433;-84
2022/12/21 08:13:56;;;;;;;1.08;0.98;;;6.60;99.90;;;;;;6216688;23;20341;-84
2022/12/21 08:16:22;;;;;;;0.15;0.13;;;6.60;99.90;;;;;;6192786;23;20051;-84
2022/12/21 08:18:48;;;;;;;0.63;0.47;;;6.60;99.90;;;;;;6217449;23;20016;-90
2022/12/21 08:21:14;;;;;;;1.23;0.40;;;6.60;99.90;;;;;;6217821;23;20349;-84
2022/12/21 08:23:40;;;;;;;1.23;0.63;;;6.60;99.90;;;;;;6217601;23;20016;-84
2022/12/21 08:26:08;;;;;;;2.60;1.30;;;6.60;99.90;;;;;;6192205;23;20257;-82
2022/12/21 08:28:34;;;;;;;0.98;0.80;;;6.60;99.90;;;;;;6167746;23;20074;-83
2022/12/21 08:31:01;;;;;;;0.70;0.60;;;6.60;99.90;;;;;;6191378;23;20016;-83
2022/12/21 08:33:27;;;;;;;1.58;0.63;;;6.60;99.90;;;;;;6217358;23;20016;-83
2022/12/21 08:35:53;;;;;;;1.70;0.87;;;6.60;99.90;;;;;;6191802;23;20468;-82
2022/12/21 08:38:18;;;;;;;1.00;1.00;;;6.60;99.90;;;;;;6193071;23;20059;-83
2022/12/21 08:40:44;;;;;;;1.37;0.40;;;6.60;99.90;;;;;;6191887;23;20024;-83
2022/12/21 08:43:10;;;;;;;2.08;0.70;;;6.60;99.90;;;;;;6216489;23;20019;-84
2022/12/21 08:45:36;;;;;;;0.57;0.40;;;6.60;99.90;;;;;;6244330;23;20024;-83
2022/12/21 08:48:02;;;;;;;1.10;0.90;;;6.60;99.90;;;;;;6191878;23;20024;-84
2022/12/21 08:50:27;;;;;;;1.47;0.50;;;6.60;99.90;;;;;;6192249;23;20027;-83
2022/12/21 08:52:53;;;;;;;1.43;0.33;;;6.60;99.90;;;;;;6191950;23;20012;-84
2022/12/21 08:55:19;;;;;;;0.20;0.20;;;6.60;99.90;;;;;;6143314;23;20472;-83
2022/12/21 08:57:44;;;;;;;0.60;0.20;;;5.90;99.90;;;;;;6192491;23;20016;-83
2022/12/21 09:00:11;;;;;;;0.47;0.47;;;6.60;99.90;;;;;;6191723;23;20092;-84
2022/12/21 09:02:37;;;;;;;0.45;0.45;;;6.60;99.90;;;;;;6142787;23;20043;-87
2022/12/21 09:05:04;;;;;;;2.97;0.47;;;6.70;99.90;;;;;;6216786;23;20012;-84
2022/12/21 09:07:29;;;;;;;;;;;6.70;99.90;;;;;;6217069;23;20008;-83
2022/12/21 09:09:55;;;;;;;1.70;0.52;;;6.70;99.90;;;;;;6164188;23;1102926;-84
2022/12/21 09:12:21;;;;;;;3.27;0.90;;;6.80;99.90;;;;;;6193323;23;20044;-85
2022/12/21 09:14:47;;;;;;;1.50;0.43;;;6.80;99.90;;;;;;6242786;23;20449;-83
2022/12/21 09:17:12;;;;;;;0.60;0.60;;;6.80;99.90;;;;;;6191953;23;20024;-86
2022/12/21 09:19:39;;;;;;;0.40;0.40;;;6.80;99.90;;;;;;6244041;23;20329;-84
2022/12/21 09:22:04;;;;;;;2.13;0.65;;;6.90;99.90;;;;;;6193117;23;20095;-87
2022/12/21 09:24:30;;;;;;;0.77;0.50;;;6.90;99.90;;;;;;6192118;23;20447;-85
2022/12/21 09:26:56;;;;;;;2.57;1.00;;;6.90;99.90;;;;;;6218070;23;20047;-89
2022/12/21 09:29:23;;;;;;;1.17;0.50;;;6.90;99.90;;;;;;6217604;23;20016;-86
2022/12/21 09:31:50;;;;;;;0.88;0.50;;;6.90;99.90;;;;;;6243932;23;20453;-85
2022/12/21 09:34:17;;;;;;;1.67;0.95;;;7.00;99.90;;;;;;6243437;23;20016;-85
2022/12/21 09:36:44;;;;;;;1.50;0.60;;;7.00;99.90;;;;;;6244036;23;20057;-85
2022/12/21 09:39:12;;;;;;;1.90;0.75;;;7.10;99.90;;;;;;6218200;23;20513;-85
2022/12/21 09:41:47;;;;;;;1.08;0.80;;;7.10;99.90;;;;;;6243592;23;20023;-85
2022/12/21 09:44:30;;;;;;;2.25;0.65;;;7.10;99.90;;;;;;6245143;23;20099;-85
2022/12/21 09:47:00;;;;;;;0.80;0.55;;;7.10;99.90;;;;;;6220412;23;20471;-84
2022/12/21 09:49:31;;;;;;;0.50;0.47;;;7.10;99.90;;;;;;6220379;23;20066;-85
2022/12/21 09:52:01;;;;;;;2.13;1.17;;;7.20;99.90;;;;;;6220347;23;20024;-84
2022/12/21 09:54:39;;;;;;;2.25;1.10;;;7.20;99.90;;;;;;6245429;23;20062;-85
2022/12/21 09:57:09;;;;;;;1.77;0.57;;;7.20;99.90;;;;;;6219423;23;20020;-85
2022/12/21 09:59:34;;;;;;;2.50;0.93;;;7.20;99.90;;;;;;6220073;23;20094;-85
2022/12/21 10:02:40;;;;;;;1.07;0.40;;;7.20;99.90;;;;;;6220219;23;20055;-84
2022/12/21 10:05:44;;;;;;;3.10;1.50;;;7.10;99.90;;;;;;6228160;23;20254;-85
2022/12/21 10:08:37;;;;;;;0.30;0.28;;;7.20;99.90;;;;;;6241093;23;20062;-85
2022/12/21 10:11:24;;;;;;;3.90;1.25;;;7.10;99.90;;;;;;6189492;23;20063;-91
2022/12/21 10:14:11;;;;;;;1.25;0.52;;;7.10;99.90;;;;;;6165337;23;20117;-84
2022/12/21 10:17:05;;;;;;;0.93;0.30;;;7.10;99.90;;;;;;6190005;23;20024;-85
2022/12/21 10:19:49;;;;;;;0.47;0.25;;;7.10;99.90;;;;;;6165046;23;20504;-84
2022/12/21 10:22:49;;;;;;;2.08;1.13;;;7.10;99.90;;;;;;6164859;23;20028;-85
2022/12/21 10:25:20;;;;;;;2.10;0.52;;;7.10;99.90;;;;;;6157575;23;20016;-85
2022/12/21 10:28:08;;;;;;;0.80;0.80;;;7.10;99.90;;;;;;6189792;23;20020;-84
2022/12/21 10:30:36;;;;;;;;;;;7.10;99.90;;;;;;6164179;23;20017;-85
2022/12/21 10:33:02;;;;;;;4.25;1.27;;;7.10;99.90;;;;;;6189654;23;19916;-84
2022/12/21 10:35:40;;;;;;;0.77;0.77;;;7.10;99.90;;;;;;6164648;23;20017;-85
2022/12/21 10:38:19;;;;;;;3.08;0.68;;;7.20;99.90;;;;;;6165643;23;20043;-84
2022/12/21 10:40:52;;;;;;;0.65;0.40;;;7.10;99.90;;;;;;6189660;23;20027;-84
2022/12/21 10:43:19;;;;;;;0.55;0.40;;;7.20;99.90;;;;;;6188847;23;20016;-85
2022/12/21 10:45:45;;;;;;;3.33;0.35;;;7.20;99.90;;;;;;6164766;23;20060;-85
2022/12/21 10:48:11;;;;;;;2.23;0.90;;;7.20;99.90;;;;;;6189221;23;20098;-85
2022/12/21 10:50:42;;;;;;;0.80;0.53;;;7.30;99.90;;;;;;6189549;23;20017;-85
2022/12/21 10:53:26;;;;;;;0.22;0.22;;;7.30;99.90;;;;;;6189125;23;20013;-85
2022/12/21 10:55:55;;;;;;;1.35;0.30;;;7.40;99.90;;;;;;6164876;23;20100;-84
2022/12/21 10:58:29;;;;;;;0.65;0.40;;;7.60;99.90;;;;;;6164943;23;20012;-85
2022/12/21 11:01:15;;;;;;;3.70;0.90;;;7.70;99.90;;;;;;6164797;23;20025;-85
2022/12/21 11:03:41;;;;;;;2.55;0.95;;;7.90;99.90;;;;;;6216123;23;20013;-85
2022/12/21 11:06:16;;;;;;;1.58;0.77;;;8.20;99.90;;;;;;6189503;23;20024;-85
2022/12/21 11:08:49;;;;;;;1.38;0.47;;;8.30;99.90;;;;;;6174510;23;20107;-85
2022/12/21 11:11:36;;;;;;;0.45;0.30;;;8.50;99.90;;;;;;6194258;23;20016;-85
2022/12/21 11:14:16;;;;;;;0.37;0.37;;;8.70;99.90;;;;;;6217481;23;20020;-85
2022/12/21 11:16:46;;;;;;;1.70;0.50;;;8.90;99.90;;;;;;6218979;23;20016;-85
2022/12/21 11:19:17;;;;;;;1.70;0.90;;;9.20;99.90;;;;;;6219333;23;20016;-89
2022/12/21 11:21:52;;;;;;;2.67;0.85;;;9.30;99.90;;;;;;6218836;23;20111;-88
2022/12/21 11:24:36;;;;;;;1.40;0.47;;;9.50;99.90;;;;;;6217782;23;20051;-85
2022/12/21 11:27:11;;;;;;;2.38;1.27;;;9.60;99.90;;;;;;6194379;23;20016;-85
2022/12/21 11:30:17;;;;;;;4.50;1.00;;;9.60;99.90;;;;;;6191473;23;20480;-84
2022/12/21 11:32:44;;;;;;;2.67;0.85;;;9.60;99.90;;;;;;6220625;23;20038;-84
2022/12/21 11:35:21;;;;;;;3.33;0.98;;;9.40;99.90;;;;;;6219895;23;20008;-83
2022/12/21 11:37:53;;;;;;;2.45;0.98;;;9.40;99.90;;;;;;6219618;23;20098;-83
2022/12/21 11:40:25;;;;;;;2.40;0.82;;;9.40;99.90;;;;;;6193283;23;20074;-84
2022/12/21 11:43:00;;;;;;;0.90;0.65;;;9.40;99.90;;;;;;6219415;23;20023;-83
2022/12/21 11:46:22;;;;;;;1.63;1.27;;;9.50;99.90;;;;;;6192672;23;20048;-83
2022/12/21 11:49:10;;;;;;;2.50;1.15;;;9.60;99.90;;;;;;6195748;23;20062;-85
2022/12/21 11:52:01;;;;;;;0.75;0.50;;;9.70;99.90;;;;;;6218789;23;20019;-86
2022/12/21 11:54:33;;;;;;;1.98;0.68;;;9.70;99.90;;;;;;6217792;23;20401;-89
2022/12/21 11:57:36;;;;;;;1.17;0.35;;;9.80;99.90;;;;;;6199785;23;20130;-88
2022/12/21 12:00:07;;;;;;;1.00;0.70;;;9.80;99.90;;;;;;6199338;23;20027;-87
2022/12/21 12:02:41;;;;;;;2.03;1.00;;;9.90;99.90;;;;;;6219057;23;20020;-87
2022/12/21 12:05:18;;;;;;;2.45;0.90;;;10.00;99.90;;;;;;6218537;23;20337;-87
2022/12/21 12:08:19;;;;;;;1.88;0.95;;;10.00;99.90;;;;;;6218321;23;20020;-87
2022/12/21 12:10:56;;;;;;;0.60;0.60;;;10.70;99.90;;;;;;6114036;23;20048;-88
2022/12/21 12:13:34;;;;;;;3.15;1.20;;;10.00;99.90;;;;;;6165915;23;20341;-92
2022/12/21 12:16:28;;;;;;;1.83;0.90;;;10.10;99.90;;;;;;6164936;23;20017;-86
2022/12/21 12:19:05;;;;;;;1.20;0.80;;;10.00;99.90;;;;;;6164020;23;20024;-85
2022/12/21 12:21:37;;;;;;;1.90;1.08;;;10.00;99.90;;;;;;6188309;23;20012;-85
2022/12/21 12:24:16;;;;;;;1.10;0.47;;;9.90;99.90;;;;;;6188910;23;20056;-85
2022/12/21 12:26:52;;;;;;;1.17;0.98;;;9.80;99.90;;;;;;6162847;23;20103;-85
2022/12/21 12:29:30;;;;;;;1.70;0.95;;;9.80;99.90;;;;;;6213884;23;20372;-85
2022/12/21 12:32:19;;;;;;;4.22;1.02;;;9.90;99.90;;;;;;6163343;23;20404;-85
2022/12/21 12:35:13;;;;;;;2.13;1.08;;;9.90;99.90;;;;;;6163240;23;20353;-86
2022/12/21 12:38:03;;;;;;;3.10;0.85;;;9.90;99.90;;;;;;6163639;23;20385;-86
2022/12/21 12:40:55;;;;;;;1.25;0.70;;;9.90;99.90;;;;;;6188159;23;20009;-86
2022/12/21 12:43:39;;;;;;;1.75;1.02;;;9.80;99.90;;;;;;6188342;23;20107;-85
2022/12/21 12:47:01;;;;;;;1.83;1.50;;;9.70;99.90;;;;;;6163886;23;20348;-86
2022/12/21 12:49:44;;;;;;;1.65;1.08;;;9.70;99.90;;;;;;6040562;23;20022;-92
2022/12/21 12:52:57;;;;;;;1.25;0.88;;;9.60;99.90;;;;;;6175383;23;20099;-85
2022/12/21 12:55:52;;;;;;;0.68;0.43;;;9.50;99.90;;;;;;6153412;23;20016;-85
2022/12/21 12:58:18;;;;;;;2.70;1.63;;;9.40;99.90;;;;;;6143274;23;20012;-85
2022/12/21 13:01:02;;;;;;;1.33;1.03;;;9.40;99.90;;;;;;6162621;23;20345;-85
2022/12/21 13:03:47;;;;;;;1.23;0.50;;;9.40;99.90;;;;;;6164014;23;20017;-86
2022/12/21 13:06:41;;;;;;;2.78;1.50;;;9.30;99.90;;;;;;6188527;23;20096;-85
2022/12/21 13:09:29;;;;;;;1.48;1.27;;;9.30;99.90;;;;;;6175371;23;20031;-85
2022/12/21 13:12:04;;;;;;;1.10;0.70;;;9.20;99.90;;;;;;6217688;23;20016;-85
2022/12/21 13:14:41;;;;;;;1.40;0.65;;;9.30;99.90;;;;;;6193694;23;20020;-85
2022/12/21 13:17:33;;;;;;;0.70;0.70;;;9.40;99.90;;;;;;6217924;23;20020;-85
2022/12/21 13:20:00;;;;;;;0.90;0.52;;;9.40;99.90;;;;;;6195296;23;20392;-85
2022/12/21 13:22:32;;;;;;;2.08;0.88;;;9.50;99.90;;;;;;6195917;23;20394;-85
2022/12/21 13:25:02;;;;;;;2.75;1.05;;;9.40;99.90;;;;;;6220643;23;20015;-85
2022/12/21 13:27:35;;;;;;;1.67;0.95;;;9.30;99.90;;;;;;6220817;23;20448;-85
2022/12/21 13:30:15;;;;;;;1.27;0.80;;;9.20;99.90;;;;;;6220094;23;20020;-85
2022/12/21 13:32:47;;;;;;;2.80;1.58;;;9.00;99.90;;;;;;6194815;23;20460;-85
2022/12/21 13:35:34;;;;;;;1.48;1.27;;;9.00;99.90;;;;;;6220538;23;20016;-85
2022/12/21 13:38:12;;;;;;;2.05;0.85;;;8.90;99.90;;;;;;6220643;23;20099;-85